Time;durP1;ratioP1;P1;durP2;ratioP2;P2;SDS_P1;SDS_P2;PMS_P1;PMS_P2;Temp;Humidity;BMP_temperature;BMP_pressure;BME280_temperature;BME280_humidity;BME280_pressure;Samples;Min_cycle;Max_cycle;Signal;HPM_P1;HPM_P2
2022/03/06 00:01:21;;;;;;;25.77;11.87;;;;;;;0.35;66.00;102243.44;4969279;28;20473;-88
2022/03/06 00:03:50;;;;;;;27.60;12.53;;;;;;;0.32;66.26;102253.59;4968667;28;20456;-88
2022/03/06 00:06:16;;;;;;;24.97;12.03;;;;;;;0.28;66.71;102246.59;4968522;28;20026;-87
2022/03/06 00:08:42;;;;;;;25.17;11.53;;;;;;;0.26;66.48;102253.34;4950983;28;20102;-87
2022/03/06 00:11:08;;;;;;;26.37;12.07;;;;;;;0.26;66.05;102258.47;4972192;28;20563;-88
2022/03/06 00:13:33;;;;;;;25.40;11.60;;;;;;;0.24;66.06;102260.06;4967974;28;20573;-88
2022/03/06 00:15:59;;;;;;;27.17;12.07;;;;;;;0.22;65.98;102262.59;4967591;28;20109;-87
2022/03/06 00:18:25;;;;;;;25.03;12.07;;;;;;;0.21;66.49;102259.94;4970638;28;20466;-88
2022/03/06 00:20:50;;;;;;;26.77;12.73;;;;;;;0.18;66.30;102264.94;4967544;28;20030;-87
2022/03/06 00:23:15;;;;;;;28.17;13.20;;;;;;;0.14;66.87;102263.94;4974756;28;20030;-87
2022/03/06 00:25:40;;;;;;;25.80;12.10;;;;;;;0.12;66.26;102260.44;4967845;28;20027;-88
2022/03/06 00:28:06;;;;;;;27.80;12.30;;;;;;;0.13;65.48;102257.97;4966738;28;20131;-87
2022/03/06 00:30:31;;;;;;;26.33;12.20;;;;;;;0.11;66.35;102257.03;4972007;28;20023;-87
2022/03/06 00:32:56;;;;;;;26.10;12.37;;;;;;;0.11;66.40;102259.59;4980908;28;20129;-88
2022/03/06 00:35:22;;;;;;;27.60;11.83;;;;;;;0.10;66.18;102262.06;4992101;28;20026;-88
2022/03/06 00:37:48;;;;;;;26.63;12.50;;;;;;;0.09;66.83;102265.44;4991828;28;20026;-87
2022/03/06 00:40:13;;;;;;;26.83;12.13;;;;;;;0.07;67.01;102267.94;4987495;28;20026;-87
2022/03/06 00:42:38;;;;;;;24.93;11.83;;;;;;;0.06;66.69;102279.00;4991484;28;20107;-87
2022/03/06 00:45:04;;;;;;;24.53;11.63;;;;;;;0.02;66.34;102272.00;4987139;28;20029;-88
2022/03/06 00:47:30;;;;;;;27.47;11.87;;;;;;;0.04;65.88;102278.06;4992961;28;20022;-87
2022/03/06 00:49:55;;;;;;;29.80;12.13;;;;;;;0.04;66.38;102288.28;4989813;28;20030;-87
2022/03/06 00:52:20;;;;;;;29.37;12.83;;;;;;;0.07;66.89;102288.41;4992602;28;20022;-87
2022/03/06 00:54:46;;;;;;;27.70;12.70;;;;;;;0.08;66.33;102290.16;4991477;28;20085;-87
2022/03/06 00:57:11;;;;;;;27.30;12.17;;;;;;;0.06;66.83;102291.78;4991873;28;20057;-88
2022/03/06 00:59:36;;;;;;;25.90;12.03;;;;;;;0.06;66.43;102286.66;4992803;28;20477;-87
2022/03/06 01:02:04;;;;;;;28.93;13.20;;;;;;;0.07;66.31;102285.00;4993264;28;20154;-87
2022/03/06 01:04:29;;;;;;;27.50;12.50;;;;;;;0.06;65.76;102284.13;4992286;28;20030;-88
2022/03/06 01:06:55;;;;;;;25.17;11.80;;;;;;;0.09;65.81;102291.03;4993574;28;20027;-87
2022/03/06 01:09:20;;;;;;;30.60;12.90;;;;;;;0.05;66.67;102290.03;4990799;28;20037;-87
2022/03/06 01:11:46;;;;;;;23.53;11.30;;;;;;;0.05;65.99;102292.59;4986266;28;20027;-87
2022/03/06 01:14:11;;;;;;;28.70;12.43;;;;;;;0.03;65.91;102303.59;4990225;28;20040;-87
2022/03/06 01:16:36;;;;;;;27.80;12.53;;;;;;;-0.02;66.47;102305.97;4989936;28;20374;-88
2022/03/06 01:19:02;;;;;;;32.10;13.13;;;;;;;-0.04;66.38;102302.47;4992985;28;21661;-88
2022/03/06 01:21:28;;;;;;;30.83;13.37;;;;;;;-0.08;66.94;102305.69;4993813;28;20450;-88
2022/03/06 01:23:53;;;;;;;29.90;13.07;;;;;;;-0.12;66.11;102298.69;4990947;28;20026;-87
2022/03/06 01:26:19;;;;;;;30.77;12.80;;;;;;;-0.14;65.84;102297.75;4992481;28;20066;-88
2022/03/06 01:28:44;;;;;;;29.47;12.83;;;;;;;-0.21;66.74;102297.50;4992671;28;20503;-87
2022/03/06 01:31:10;;;;;;;28.13;11.87;;;;;;;-0.25;66.69;102295.63;4982211;28;20027;-87
2022/03/06 01:33:36;;;;;;;27.77;12.50;;;;;;;-0.30;67.00;102302.22;4990570;28;20049;-87
2022/03/06 01:36:01;;;;;;;28.70;14.07;;;;;;;-0.30;66.79;102312.44;4989802;28;20073;-87
2022/03/06 01:38:26;;;;;;;28.67;13.73;;;;;;;-0.33;66.50;102308.09;4992880;28;20109;-87
2022/03/06 01:40:52;;;;;;;30.73;13.00;;;;;;;-0.38;66.83;102306.16;4991342;28;20027;-88
2022/03/06 01:43:17;;;;;;;29.80;12.97;;;;;;;-0.40;66.51;102306.06;4988794;28;20591;-87
2022/03/06 01:45:42;;;;;;;27.03;12.60;;;;;;;-0.44;66.54;102298.19;4992558;28;20408;-87
2022/03/06 01:48:09;;;;;;;28.23;12.43;;;;;;;-0.46;66.50;102314.34;4991039;28;20031;-88
2022/03/06 01:50:35;;;;;;;27.43;12.87;;;;;;;-0.50;67.07;102309.91;4991320;28;20491;-87
2022/03/06 01:53:05;;;;;;;28.67;13.27;;;;;;;-0.55;67.17;102306.28;4989198;28;20501;-87
2022/03/06 01:55:31;;;;;;;28.37;12.63;;;;;;;-0.60;66.71;102302.66;4990524;28;20030;-88
2022/03/06 01:58:00;;;;;;;28.77;13.03;;;;;;;-0.64;67.43;102306.75;4987205;28;20070;-88
2022/03/06 02:00:28;;;;;;;30.50;12.30;;;;;;;-0.66;67.21;102307.47;4983510;28;20168;-87
2022/03/06 02:02:54;;;;;;;28.50;13.23;;;;;;;-0.71;68.51;102298.75;4989221;28;20105;-87
2022/03/06 02:05:20;;;;;;;29.23;11.80;;;;;;;-0.71;67.07;102309.84;4987399;28;20121;-87
2022/03/06 02:07:46;;;;;;;30.83;12.83;;;;;;;-0.73;68.13;102308.91;4990987;28;20117;-87
2022/03/06 02:10:14;;;;;;;28.30;13.40;;;;;;;-0.74;67.91;102306.28;4990445;28;20041;-87
2022/03/06 02:12:40;;;;;;;26.40;11.83;;;;;;;-0.74;67.89;102308.84;4990441;28;20026;-87
2022/03/06 02:15:07;;;;;;;31.40;13.53;;;;;;;-0.78;68.40;102303.59;4990190;28;20018;-87
2022/03/06 02:17:33;;;;;;;30.17;14.13;;;;;;;-0.80;68.04;102310.31;4990403;28;20030;-87
2022/03/06 02:20:03;;;;;;;28.37;13.50;;;;;;;-0.84;67.96;102316.06;4991391;28;20038;-87
2022/03/06 02:22:32;;;;;;;28.80;13.33;;;;;;;-0.86;67.38;102310.03;4990352;28;20401;-87
2022/03/06 02:24:59;;;;;;;29.77;12.93;;;;;;;-0.89;68.08;102309.91;4990786;28;20029;-87
2022/03/06 02:27:25;;;;;;;32.20;13.93;;;;;;;-0.93;69.22;102315.66;4989235;28;20026;-87
2022/03/06 02:29:50;;;;;;;31.87;13.80;;;;;;;-0.94;68.74;102321.59;4991288;28;20366;-87
2022/03/06 02:32:19;;;;;;;30.23;13.50;;;;;;;-1.00;68.58;102311.06;4991985;28;20050;-87
2022/03/06 02:34:46;;;;;;;28.00;13.07;;;;;;;-1.01;68.86;102319.53;4976210;28;20037;-87
2022/03/06 02:37:13;;;;;;;27.07;12.30;;;;;;;-1.04;68.63;102319.41;4973007;28;20058;-87
2022/03/06 02:39:38;;;;;;;29.40;13.20;;;;;;;-1.07;68.10;102326.13;4956928;28;20114;-87
2022/03/06 02:42:05;;;;;;;29.00;12.80;;;;;;;-1.11;68.53;102319.13;4959291;28;20529;-87
2022/03/06 02:44:31;;;;;;;30.40;13.13;;;;;;;-1.13;69.01;102325.84;4960707;28;20030;-88
2022/03/06 02:46:56;;;;;;;28.80;13.50;;;;;;;-1.16;69.13;102323.13;4978200;28;20030;-87
2022/03/06 02:49:22;;;;;;;30.50;13.77;;;;;;;-1.16;68.55;102330.81;4952405;28;20023;-87
2022/03/06 02:51:48;;;;;;;26.97;12.70;;;;;;;-1.18;69.56;102322.19;4973894;28;20535;-88
2022/03/06 02:54:17;;;;;;;29.43;12.93;;;;;;;-1.19;69.29;102324.69;4958273;28;20038;-87
2022/03/06 02:56:45;;;;;;;27.97;12.80;;;;;;;-1.24;69.49;102327.03;4975431;28;20023;-87
2022/03/06 02:59:10;;;;;;;26.97;11.83;;;;;;;-1.24;69.01;102327.03;4973150;28;20034;-87
2022/03/06 03:01:40;;;;;;;26.93;12.20;;;;;;;-1.26;69.85;102326.06;4976080;28;20493;-87
2022/03/06 03:04:06;;;;;;;25.10;11.57;;;;;;;-1.25;69.01;102330.38;4974077;28;20390;-87
2022/03/06 03:06:31;;;;;;;29.83;12.83;;;;;;;-1.28;69.92;102330.22;4967226;28;20493;-87
2022/03/06 03:08:57;;;;;;;25.27;11.33;;;;;;;-1.29;69.62;102328.47;4969580;28;20031;-87
2022/03/06 03:11:23;;;;;;;26.70;12.30;;;;;;;-1.32;69.59;102333.44;4974855;28;20105;-87
2022/03/06 03:13:48;;;;;;;22.87;11.20;;;;;;;-1.35;69.59;102338.38;4976051;28;20476;-87
2022/03/06 03:16:14;;;;;;;26.40;11.70;;;;;;;-1.38;69.58;102340.03;4977963;28;20389;-87
2022/03/06 03:18:39;;;;;;;25.63;11.37;;;;;;;-1.40;70.05;102335.63;4982806;28;20076;-87
2022/03/06 03:21:04;;;;;;;28.73;11.27;;;;;;;-1.40;70.12;102338.19;4969513;28;20031;-87
2022/03/06 03:23:29;;;;;;;25.40;11.37;;;;;;;-1.46;70.19;102328.56;4977626;28;20031;-87
2022/03/06 03:25:55;;;;;;;24.97;11.80;;;;;;;-1.46;70.39;102331.09;4979063;28;20083;-86
2022/03/06 03:28:20;;;;;;;26.80;12.70;;;;;;;-1.47;69.82;102336.16;4980809;28;20079;-87
2022/03/06 03:30:45;;;;;;;26.37;11.60;;;;;;;-1.50;69.96;102334.31;4971667;28;20027;-87
2022/03/06 03:33:10;;;;;;;26.87;11.83;;;;;;;-1.52;70.26;102341.00;4980998;28;20500;-87
2022/03/06 03:35:36;;;;;;;23.77;11.73;;;;;;;-1.51;70.09;102327.44;4991071;28;20096;-87
2022/03/06 03:38:01;;;;;;;24.43;11.83;;;;;;;-1.55;70.98;102330.69;4990258;28;20443;-87
2022/03/06 03:40:26;;;;;;;30.17;11.87;;;;;;;-1.53;70.65;102331.59;4990867;28;20124;-87
2022/03/06 03:42:52;;;;;;;23.80;10.67;;;;;;;-1.53;70.76;102339.25;4989766;28;20481;-87
2022/03/06 03:45:17;;;;;;;23.10;11.40;;;;;;;-1.53;70.90;102336.72;4984058;28;20030;-87
2022/03/06 03:47:42;;;;;;;26.43;11.27;;;;;;;-1.53;70.91;102339.25;4989802;28;20173;-87
2022/03/06 03:50:08;;;;;;;25.03;10.87;;;;;;;-1.53;70.62;102336.72;4990833;28;20481;-87
2022/03/06 03:52:33;;;;;;;25.23;11.00;;;;;;;-1.48;70.63;102331.84;4986879;28;20042;-87
2022/03/06 03:54:59;;;;;;;21.70;10.67;;;;;;;-1.50;70.37;102333.44;4990345;28;20110;-87
2022/03/06 03:57:24;;;;;;;25.60;11.47;;;;;;;-1.55;71.10;102340.88;4990104;28;20406;-87
2022/03/06 03:59:50;;;;;;;24.40;11.13;;;;;;;-1.57;70.78;102338.25;4990789;28;20131;-87
2022/03/06 04:02:16;;;;;;;24.67;11.03;;;;;;;-1.58;70.36;102340.72;4988795;28;20034;-87
2022/03/06 04:04:41;;;;;;;23.97;11.77;;;;;;;-1.59;70.25;102344.94;4985047;28;20544;-87
2022/03/06 04:07:07;;;;;;;25.30;12.03;;;;;;;-1.59;70.83;102351.75;4988068;28;20093;-87
2022/03/06 04:09:33;;;;;;;26.10;11.77;;;;;;;-1.62;70.32;102354.13;4990891;28;20524;-87
2022/03/06 04:11:58;;;;;;;25.70;11.67;;;;;;;-1.66;70.56;102349.69;4989178;28;20109;-87
2022/03/06 04:14:24;;;;;;;22.07;10.97;;;;;;;-1.69;70.85;102358.94;4990166;28;20053;-87
2022/03/06 04:16:49;;;;;;;25.77;11.73;;;;;;;-1.68;70.66;102355.56;4987096;28;20034;-87
2022/03/06 04:19:14;;;;;;;22.97;10.70;;;;;;;-1.69;71.53;102360.63;4982856;28;20054;-87
2022/03/06 04:21:39;;;;;;;21.00;10.37;;;;;;;-1.70;70.65;102358.88;4989742;28;20469;-87
2022/03/06 04:24:05;;;;;;;23.00;11.03;;;;;;;-1.72;71.31;102356.25;4990101;28;20031;-87
2022/03/06 04:26:31;;;;;;;23.53;10.33;;;;;;;-1.72;71.33;102368.13;4989690;28;20041;-87
2022/03/06 04:28:56;;;;;;;23.40;11.23;;;;;;;-1.73;71.37;102367.25;4981016;28;20031;-86
2022/03/06 04:31:21;;;;;;;22.80;11.53;;;;;;;-1.73;70.75;102367.25;4990353;28;20026;-86
2022/03/06 04:33:46;;;;;;;22.93;12.10;;;;;;;-1.76;71.70;102368.75;4981530;28;20498;-87
2022/03/06 04:36:12;;;;;;;26.63;11.57;;;;;;;-1.77;70.72;102375.56;4983189;28;20112;-86
2022/03/06 04:38:38;;;;;;;25.07;11.10;;;;;;;-1.78;70.81;102373.78;4988413;28;20033;-87
2022/03/06 04:41:03;;;;;;;23.00;11.80;;;;;;;-1.81;70.58;102383.84;4984095;28;20039;-87
2022/03/06 04:43:29;;;;;;;23.07;12.00;;;;;;;-1.84;70.84;102383.69;4987644;28;20410;-87
2022/03/06 04:45:54;;;;;;;23.40;11.13;;;;;;;-1.87;71.35;102392.06;4986203;28;20507;-87
2022/03/06 04:48:19;;;;;;;23.13;11.30;;;;;;;-1.89;71.43;102391.09;4987338;28;20042;-87
2022/03/06 04:50:44;;;;;;;25.40;12.73;;;;;;;-1.91;71.54;102389.28;5000210;28;20023;-87
2022/03/06 04:53:10;;;;;;;23.47;11.83;;;;;;;-1.93;71.57;102394.28;4987636;28;20084;-86
2022/03/06 04:55:35;;;;;;;21.90;11.27;;;;;;;-1.95;71.52;102395.88;4990023;28;20031;-87
2022/03/06 04:58:00;;;;;;;22.37;11.80;;;;;;;-1.97;71.53;102392.41;4980007;28;20113;-87
2022/03/06 05:00:26;;;;;;;22.77;11.27;;;;;;;-1.96;71.55;102398.38;4987512;28;20030;-87
2022/03/06 05:02:51;;;;;;;23.70;12.40;;;;;;;-1.99;71.82;102399.97;4989080;28;20061;-86
2022/03/06 05:05:16;;;;;;;20.30;10.50;;;;;;;-2.00;71.16;102405.00;4987616;28;20053;-87
2022/03/06 05:07:42;;;;;;;24.07;12.47;;;;;;;-2.00;71.99;102410.97;4985882;28;20039;-87
2022/03/06 05:10:11;;;;;;;23.00;11.77;;;;;;;-2.01;72.06;102419.41;4988426;28;20503;-87
2022/03/06 05:12:38;;;;;;;24.67;12.57;;;;;;;-1.99;72.11;102422.91;4988801;28;21631;-86
2022/03/06 05:15:05;;;;;;;23.13;11.97;;;;;;;-2.03;72.06;102421.00;4987758;28;20410;-87
2022/03/06 05:17:30;;;;;;;21.57;11.40;;;;;;;-2.01;72.30;102421.97;4987547;28;20029;-87
2022/03/06 05:19:55;;;;;;;23.87;12.57;;;;;;;-2.00;71.72;102428.81;4993352;28;20030;-86
2022/03/06 05:22:21;;;;;;;23.93;11.23;;;;;;;-2.01;72.37;102427.06;4993020;28;20034;-86
2022/03/06 05:24:46;;;;;;;25.47;13.10;;;;;;;-2.00;71.63;102423.72;4991546;28;20473;-86
2022/03/06 05:27:11;;;;;;;26.23;14.10;;;;;;;-1.99;71.85;102427.16;4989386;28;20113;-87
2022/03/06 05:29:36;;;;;;;24.87;12.27;;;;;;;-1.99;72.25;102430.56;4984367;28;20374;-86
2022/03/06 05:32:02;;;;;;;25.80;12.83;;;;;;;-2.00;72.19;102428.81;4987684;28;20042;-86
2022/03/06 05:34:27;;;;;;;26.73;12.77;;;;;;;-2.01;72.35;102427.06;4991566;28;20026;-87
2022/03/06 05:36:54;;;;;;;22.43;11.63;;;;;;;-2.02;71.94;102435.50;4987041;28;20042;-86
2022/03/06 05:39:19;;;;;;;22.30;11.23;;;;;;;-2.03;72.50;102426.09;4987205;28;20196;-86
2022/03/06 05:41:44;;;;;;;22.53;11.60;;;;;;;-2.01;71.64;102433.84;4990851;28;20487;-87
2022/03/06 05:44:09;;;;;;;22.37;11.83;;;;;;;-2.01;72.10;102437.25;4992465;28;20042;-87
2022/03/06 05:46:35;;;;;;;22.43;11.67;;;;;;;-2.00;72.15;102433.06;4990143;28;20512;-87
2022/03/06 05:49:00;;;;;;;23.13;12.67;;;;;;;-2.02;72.30;102434.66;4990919;28;20030;-87
2022/03/06 05:51:25;;;;;;;21.83;11.67;;;;;;;-2.02;72.30;102435.50;4988780;28;20045;-87
2022/03/06 05:53:50;;;;;;;19.97;11.43;;;;;;;-2.00;72.24;102444.13;4989430;28;20492;-87
2022/03/06 05:56:16;;;;;;;24.17;11.73;;;;;;;-2.04;71.64;102444.75;4990497;28;20034;-86
2022/03/06 05:58:41;;;;;;;25.70;10.73;;;;;;;-2.02;72.14;102448.25;4990192;28;20026;-87
2022/03/06 06:01:06;;;;;;;23.47;11.70;;;;;;;-2.05;71.86;102445.53;4990432;28;20031;-86
2022/03/06 06:03:31;;;;;;;21.57;11.20;;;;;;;-2.04;71.90;102449.84;4988385;28;20038;-86
2022/03/06 06:05:57;;;;;;;21.10;11.03;;;;;;;-2.06;72.20;102451.47;4990807;28;20617;-87
2022/03/06 06:08:22;;;;;;;25.07;12.13;;;;;;;-2.04;71.82;102459.19;4989031;28;20053;-87
2022/03/06 06:10:47;;;;;;;21.77;11.47;;;;;;;-2.05;72.23;102462.53;4988297;28;20041;-86
2022/03/06 06:13:15;;;;;;;21.20;11.07;;;;;;;-2.05;72.20;102460.84;4982095;28;20037;-87
2022/03/06 06:15:43;;;;;;;22.50;12.47;;;;;;;-2.08;72.10;102463.25;4991362;28;20092;-86
2022/03/06 06:18:09;;;;;;;22.37;11.40;;;;;;;-2.07;71.90;102467.56;4990081;28;20030;-86
2022/03/06 06:20:36;;;;;;;21.13;10.97;;;;;;;-2.06;71.90;102465.88;4987165;28;20034;-86
2022/03/06 06:23:02;;;;;;;23.87;11.70;;;;;;;-2.06;71.69;102469.31;4989874;28;20485;-87
2022/03/06 06:25:27;;;;;;;20.73;10.90;;;;;;;-2.06;71.61;102473.53;4982425;28;20486;-86
2022/03/06 06:27:52;;;;;;;21.83;11.83;;;;;;;-2.06;72.38;102476.97;4988731;28;20030;-86
2022/03/06 06:30:18;;;;;;;22.07;11.60;;;;;;;-2.05;71.42;102480.38;4989128;28;20074;-86
2022/03/06 06:32:43;;;;;;;20.83;11.03;;;;;;;-2.05;71.86;102486.34;4989706;28;20402;-87
2022/03/06 06:35:09;;;;;;;25.33;12.70;;;;;;;-2.05;71.92;102493.13;4989558;28;20049;-86
2022/03/06 06:37:34;;;;;;;23.33;11.90;;;;;;;-2.05;72.25;102491.44;4985565;28;20030;-86
2022/03/06 06:39:59;;;;;;;20.90;11.03;;;;;;;-2.04;71.51;102493.19;4982815;28;20053;-86
2022/03/06 06:42:24;;;;;;;22.37;11.33;;;;;;;-2.02;72.41;102496.72;4990577;28;20105;-86
2022/03/06 06:44:50;;;;;;;22.70;11.70;;;;;;;-1.99;71.97;102498.56;4987983;28;20026;-87
2022/03/06 06:47:15;;;;;;;22.13;11.47;;;;;;;-1.99;72.31;102501.97;4991391;28;20169;-87
2022/03/06 06:49:41;;;;;;;21.47;11.13;;;;;;;-1.99;71.57;102501.97;4982585;28;20597;-87
2022/03/06 06:52:06;;;;;;;23.53;12.23;;;;;;;-1.96;71.92;102500.41;4989303;28;20034;-87
2022/03/06 06:54:31;;;;;;;21.23;11.33;;;;;;;-1.95;72.53;102504.69;4987316;28;20057;-87
2022/03/06 06:56:56;;;;;;;23.57;12.10;;;;;;;-1.94;72.29;102504.78;4988869;28;20322;-87
2022/03/06 06:59:22;;;;;;;23.67;12.60;;;;;;;-1.93;72.04;102506.53;4987267;28;20030;-87
2022/03/06 07:01:47;;;;;;;21.33;10.87;;;;;;;-1.90;72.17;102510.94;4990053;28;20388;-86
2022/03/06 07:04:12;;;;;;;22.23;11.33;;;;;;;-1.88;72.28;102511.91;4990520;28;20038;-86
2022/03/06 07:06:38;;;;;;;22.27;12.27;;;;;;;-1.86;72.46;102517.94;4989596;28;20592;-87
2022/03/06 07:09:03;;;;;;;21.87;11.40;;;;;;;-1.84;72.50;102514.69;4990135;28;20438;-86
2022/03/06 07:11:28;;;;;;;20.83;11.90;;;;;;;-1.80;72.36;102518.25;4988015;28;20026;-87
2022/03/06 07:13:54;;;;;;;23.80;11.90;;;;;;;-1.78;72.02;102515.78;4989428;28;20038;-86
2022/03/06 07:16:19;;;;;;;24.10;11.87;;;;;;;-1.74;72.58;102512.59;4988714;28;20037;-87
2022/03/06 07:18:46;;;;;;;22.30;11.87;;;;;;;-1.70;72.72;102515.38;4990190;28;20030;-87
2022/03/06 07:21:12;;;;;;;23.23;11.27;;;;;;;-1.64;72.55;102519.94;4983739;28;20096;-86
2022/03/06 07:23:37;;;;;;;20.97;11.83;;;;;;;-1.60;72.06;102519.28;4987951;28;20682;-87
2022/03/06 07:26:03;;;;;;;20.70;11.53;;;;;;;-1.56;72.78;102526.31;4989061;28;20022;-87
2022/03/06 07:28:29;;;;;;;21.67;10.70;;;;;;;-1.50;72.43;102535.94;4984206;28;20393;-86
2022/03/06 07:30:54;;;;;;;21.87;12.20;;;;;;;-1.47;72.09;102528.47;4988790;28;20034;-87
2022/03/06 07:33:19;;;;;;;23.53;13.27;;;;;;;-1.45;72.82;102537.06;4986037;28;20062;-87
2022/03/06 07:35:45;;;;;;;22.97;12.67;;;;;;;-1.41;72.26;102541.53;4987450;28;20033;-86
2022/03/06 07:38:10;;;;;;;22.90;11.97;;;;;;;-1.38;72.29;102539.16;4989039;28;20374;-86
2022/03/06 07:40:35;;;;;;;23.43;11.97;;;;;;;-1.33;72.34;102549.59;4983570;28;20034;-86
2022/03/06 07:43:01;;;;;;;23.87;12.33;;;;;;;-1.30;71.78;102553.97;4990037;28;20339;-86
2022/03/06 07:45:26;;;;;;;25.07;12.93;;;;;;;-1.27;72.42;102556.69;4988865;28;20555;-86
2022/03/06 07:47:52;;;;;;;23.83;12.70;;;;;;;-1.24;72.48;102556.84;4988177;28;20026;-86
2022/03/06 07:50:17;;;;;;;25.57;13.80;;;;;;;-1.20;72.38;102558.75;4988428;28;20034;-86
2022/03/06 07:52:44;;;;;;;25.63;14.07;;;;;;;-1.16;71.90;102568.31;4987694;28;20030;-87
2022/03/06 07:55:10;;;;;;;23.27;12.93;;;;;;;-1.13;71.97;102568.47;4988872;28;20030;-85
2022/03/06 07:57:36;;;;;;;24.60;12.83;;;;;;;-1.05;71.84;102570.53;4989098;28;20433;-86
2022/03/06 08:00:10;;;;;;;22.77;12.70;;;;;;;-1.03;72.80;102572.38;4982405;28;20026;-86
2022/03/06 08:02:35;;;;;;;23.67;12.80;;;;;;;-0.99;72.14;102568.28;4982695;28;20061;-86
2022/03/06 08:05:01;;;;;;;23.23;12.20;;;;;;;-0.96;72.30;102571.88;4988981;28;20057;-87
2022/03/06 08:07:26;;;;;;;23.10;12.33;;;;;;;-0.91;72.56;102574.66;4989868;28;20027;-86
2022/03/06 08:09:51;;;;;;;23.17;12.80;;;;;;;-0.87;72.78;102574.03;4986112;28;20117;-87
2022/03/06 08:12:16;;;;;;;22.17;12.40;;;;;;;-0.82;72.47;102577.66;4987809;28;20133;-87
2022/03/06 08:14:42;;;;;;;22.53;11.93;;;;;;;-0.74;72.18;102579.72;4985567;28;20029;-86
2022/03/06 08:17:07;;;;;;;24.07;11.80;;;;;;;-0.71;72.37;102579.88;4989952;28;20470;-87
2022/03/06 08:19:32;;;;;;;21.33;11.97;;;;;;;-0.66;72.12;102591.19;4991164;28;20036;-87
2022/03/06 08:21:58;;;;;;;21.60;11.70;;;;;;;-0.59;73.08;102589.81;4986414;28;20030;-86
2022/03/06 08:24:23;;;;;;;21.57;11.70;;;;;;;-0.55;71.75;102582.38;4987991;28;20026;-87
2022/03/06 08:26:48;;;;;;;22.70;11.93;;;;;;;-0.47;71.64;102591.28;4983980;28;20466;-87
2022/03/06 08:29:14;;;;;;;19.93;10.87;;;;;;;-0.46;71.17;102582.81;4989658;28;20034;-87
2022/03/06 08:31:39;;;;;;;19.27;11.20;;;;;;;-0.40;70.80;102591.59;4988941;28;20503;-87
2022/03/06 08:34:04;;;;;;;21.10;11.23;;;;;;;-0.35;71.54;102591.00;4987223;28;20089;-86
2022/03/06 08:36:31;;;;;;;21.23;11.97;;;;;;;-0.31;71.58;102592.91;4989424;28;20105;-86
2022/03/06 08:38:56;;;;;;;19.73;11.37;;;;;;;-0.28;71.42;102604.94;4989505;28;20023;-88
2022/03/06 08:41:21;;;;;;;17.53;9.80;;;;;;;-0.22;71.33;102607.81;4989621;28;20536;-87
2022/03/06 08:43:47;;;;;;;23.10;12.23;;;;;;;-0.18;71.21;102599.50;4986440;28;20035;-87
2022/03/06 08:46:12;;;;;;;22.47;11.93;;;;;;;-0.13;71.33;102601.34;4988883;28;20057;-87
2022/03/06 08:48:38;;;;;;;21.87;11.50;;;;;;;-0.07;70.64;102602.53;4980372;28;20030;-87
2022/03/06 08:51:04;;;;;;;21.03;11.90;;;;;;;-0.01;70.82;102607.94;4989261;28;20030;-87
2022/03/06 08:53:31;;;;;;;20.03;11.07;;;;;;;0.04;70.83;102603.03;4988810;28;20117;-87
2022/03/06 08:55:56;;;;;;;20.97;13.07;;;;;;;0.09;70.04;102606.69;4994038;28;20069;-86
2022/03/06 08:58:22;;;;;;;21.87;12.17;;;;;;;0.13;70.32;102595.78;4994696;28;20053;-87
2022/03/06 09:00:47;;;;;;;21.43;11.87;;;;;;;0.17;70.72;102607.03;4991628;28;20436;-86
2022/03/06 09:03:13;;;;;;;21.37;12.27;;;;;;;0.24;71.18;102600.50;4991154;28;20048;-87
2022/03/06 09:05:40;;;;;;;21.53;12.20;;;;;;;0.30;70.72;102606.78;4987761;28;20786;-87
2022/03/06 09:08:09;;;;;;;20.97;11.60;;;;;;;0.37;71.35;102605.38;4988590;28;20034;-87
2022/03/06 09:10:36;;;;;;;20.13;11.83;;;;;;;0.43;71.33;102609.88;4991147;28;20113;-87
2022/03/06 09:13:01;;;;;;;22.23;12.57;;;;;;;0.48;71.02;102605.00;4994175;28;20026;-88
2022/03/06 09:15:28;;;;;;;18.80;11.17;;;;;;;0.54;70.86;102608.69;4991907;28;20101;-88
2022/03/06 09:17:53;;;;;;;19.63;11.43;;;;;;;0.61;70.95;102609.84;4994217;28;20034;-87
2022/03/06 09:20:19;;;;;;;21.07;12.07;;;;;;;0.66;70.29;102605.81;4988163;28;20034;-86
2022/03/06 09:22:46;;;;;;;19.50;11.53;;;;;;;0.72;70.23;102608.63;4991470;28;20022;-87
2022/03/06 09:25:11;;;;;;;17.17;9.50;;;;;;;0.77;69.38;102602.81;4990637;28;20030;-86
2022/03/06 09:27:36;;;;;;;18.97;10.93;;;;;;;0.80;68.82;102606.38;4992954;28;20029;-86
2022/03/06 09:30:04;;;;;;;19.10;11.63;;;;;;;0.83;69.19;102600.53;4987434;28;20029;-86
2022/03/06 09:32:29;;;;;;;19.57;11.00;;;;;;;0.84;68.51;102607.41;4990194;28;20129;-87
2022/03/06 09:34:55;;;;;;;16.47;10.20;;;;;;;0.85;68.62;102610.03;4976208;28;20146;-87
2022/03/06 09:37:20;;;;;;;22.43;11.40;;;;;;;0.86;69.09;102605.75;4974153;28;20046;-86
2022/03/06 09:39:45;;;;;;;16.97;11.13;;;;;;;0.88;69.41;102612.72;4976091;28;20034;-87
2022/03/06 09:42:10;;;;;;;19.60;10.80;;;;;;;0.94;69.73;102613.81;4971199;28;20520;-87
2022/03/06 09:44:36;;;;;;;19.17;11.00;;;;;;;1.00;69.29;102604.69;4971758;28;20039;-86
2022/03/06 09:47:05;;;;;;;19.40;11.27;;;;;;;1.09;68.99;102603.31;4955890;28;20449;-87
2022/03/06 09:49:30;;;;;;;21.20;11.60;;;;;;;1.14;69.65;102602.69;4972856;28;20026;-88
2022/03/06 09:51:56;;;;;;;19.33;11.20;;;;;;;1.21;68.22;102604.72;4967842;28;20430;-88
2022/03/06 09:54:22;;;;;;;20.67;11.53;;;;;;;1.28;68.60;102607.53;4972183;28;20105;-88
2022/03/06 09:56:51;;;;;;;17.43;11.07;;;;;;;1.34;69.03;102606.09;4953019;28;20498;-87
2022/03/06 09:59:16;;;;;;;16.63;10.17;;;;;;;1.43;68.62;102610.72;4978569;28;20093;-88
2022/03/06 10:01:42;;;;;;;19.47;11.17;;;;;;;1.48;68.79;102605.78;4971137;28;20431;-88
2022/03/06 10:04:29;;;;;;;18.60;11.37;;;;;;;1.51;68.04;102600.78;4954883;28;20045;-88
2022/03/06 10:07:02;;;;;;;17.80;11.17;;;;;;;1.57;68.08;102610.41;4955738;28;20030;-87
2022/03/06 10:09:28;;;;;;;19.63;11.57;;;;;;;1.63;67.80;102606.41;4953221;28;20038;-88
2022/03/06 10:11:54;;;;;;;19.53;11.07;;;;;;;1.65;67.69;102602.19;4969035;28;20030;-85
2022/03/06 10:14:53;;;;;;;19.10;10.83;;;;;;;1.72;67.24;102607.56;4974118;28;20493;-87
2022/03/06 10:17:24;;;;;;;16.63;10.57;;;;;;;1.74;67.08;102604.25;4941444;28;20669;-87
2022/03/06 10:19:57;;;;;;;18.10;11.07;;;;;;;1.79;67.26;102607.84;4975110;28;20122;-86
2022/03/06 10:22:25;;;;;;;17.97;10.77;;;;;;;1.85;67.46;102606.34;4975891;28;20058;-89
2022/03/06 10:24:53;;;;;;;17.60;9.70;;;;;;;1.90;66.82;102604.84;4971180;28;20109;-88
2022/03/06 10:27:54;;;;;;;17.13;10.73;;;;;;;1.96;67.20;102602.53;4980945;28;20034;-88
2022/03/06 10:30:28;;;;;;;18.57;10.73;;;;;;;2.02;66.90;102605.31;4976947;28;20049;-88
2022/03/06 10:32:59;;;;;;;16.83;10.03;;;;;;;2.07;66.96;102608.94;4972592;28;20054;-86
2022/03/06 10:35:31;;;;;;;16.93;10.27;;;;;;;2.16;66.22;102600.72;4991347;28;20034;-85
2022/03/06 10:37:57;;;;;;;18.52;11.20;;;;;;;2.18;66.12;102614.50;4986921;28;20033;-86
2022/03/06 10:40:33;;;;;;;17.93;10.27;;;;;;;2.23;67.44;102612.09;4991846;28;20030;-86
2022/03/06 10:42:58;;;;;;;17.93;10.37;;;;;;;2.32;66.35;102603.84;4996459;28;20137;-88
2022/03/06 10:45:24;;;;;;;18.33;11.23;;;;;;;2.41;66.22;102606.75;4997061;28;20118;-88
2022/03/06 10:47:50;;;;;;;17.13;10.30;;;;;;;2.46;65.41;102605.22;4997724;28;20113;-88
2022/03/06 10:50:24;;;;;;;17.00;9.93;;;;;;;2.52;65.59;102599.44;4997638;28;20040;-88
2022/03/06 10:52:53;;;;;;;19.47;10.83;;;;;;;2.58;63.21;102599.66;4996053;28;20100;-88
2022/03/06 10:55:31;;;;;;;16.13;10.07;;;;;;;2.65;64.22;102600.75;4994971;28;20702;-86
2022/03/06 10:57:57;;;;;;;17.37;10.87;;;;;;;2.68;63.49;102595.72;4997024;28;20033;-86
2022/03/06 11:00:23;;;;;;;16.93;10.03;;;;;;;2.74;63.67;102598.50;4991336;28;20038;-88
2022/03/06 11:02:48;;;;;;;19.10;11.23;;;;;;;2.80;62.41;102593.56;4997607;28;20042;-86
2022/03/06 11:05:14;;;;;;;16.60;10.07;;;;;;;2.86;62.96;102598.94;4996207;28;20030;-93
2022/03/06 11:07:39;;;;;;;20.07;10.23;;;;;;;2.93;62.63;102591.44;4996849;28;20069;-88